Bokeelia, Florida
Current Conditions -  °F | °C
As of 8:53 AM on Tuesday 21 Oct 2014 (Local Time) from KPGD Reporting Station
Broken Clouds Broken Clouds  
Wind Chill: 74°   Ceiling: 6500
Heat Index: 74°   Visibility: 10mi
Dew Point: 72°   Wind: 7mph
Humidity: 93%   Direction: 130°SE
Pressure: 29.97"   Gusts: NA
Location:  26.71°N, 82.16°W
Report Text: KPGD 211253Z AUTO 13006KT 10SM SCT029 BKN065 23/22 A2997 RMK AO2 SLP149 T02330222
Loading
Personal Weather Stations






























Interactive Weather Map
Tropical Storm Tracking
New forecast layout! Learn more

10-Day Weather Forecast

Advertisements
Track Severe Weather on mobile